sensor_id;sensor_type;location;lat;lon;timestamp;P1;durP1;ratioP1;P2;durP2;ratioP2
4389;SDS011;2209;48.982;8.406;2024-03-07T00:02:11;17.03;;;14.77;;
4389;SDS011;2209;48.982;8.406;2024-03-07T00:04:33;17.13;;;14.10;;
4389;SDS011;2209;48.982;8.406;2024-03-07T00:06:56;15.90;;;13.30;;
4389;SDS011;2209;48.982;8.406;2024-03-07T00:09:18;17.70;;;12.97;;
4389;SDS011;2209;48.982;8.406;2024-03-07T00:11:46;18.77;;;15.43;;
4389;SDS011;2209;48.982;8.406;2024-03-07T00:14:08;15.70;;;14.10;;
4389;SDS011;2209;48.982;8.406;2024-03-07T00:16:30;15.63;;;13.17;;
4389;SDS011;2209;48.982;8.406;2024-03-07T00:18:54;16.67;;;14.73;;
4389;SDS011;2209;48.982;8.406;2024-03-07T00:21:16;15.97;;;14.37;;
4389;SDS011;2209;48.982;8.406;2024-03-07T00:23:38;16.00;;;14.30;;
4389;SDS011;2209;48.982;8.406;2024-03-07T00:26:00;18.33;;;15.00;;
4389;SDS011;2209;48.982;8.406;2024-03-07T00:28:24;19.20;;;16.10;;
4389;SDS011;2209;48.982;8.406;2024-03-07T00:30:49;21.00;;;16.47;;
4389;SDS011;2209;48.982;8.406;2024-03-07T00:33:11;20.70;;;16.00;;
4389;SDS011;2209;48.982;8.406;2024-03-07T00:35:34;20.53;;;17.10;;
4389;SDS011;2209;48.982;8.406;2024-03-07T00:37:56;19.10;;;16.87;;
4389;SDS011;2209;48.982;8.406;2024-03-07T00:40:18;20.07;;;17.87;;
4389;SDS011;2209;48.982;8.406;2024-03-07T00:42:40;19.50;;;16.90;;
4389;SDS011;2209;48.982;8.406;2024-03-07T00:45:05;22.17;;;18.60;;
4389;SDS011;2209;48.982;8.406;2024-03-07T00:47:27;20.17;;;17.30;;
4389;SDS011;2209;48.982;8.406;2024-03-07T00:49:51;23.10;;;19.67;;
4389;SDS011;2209;48.982;8.406;2024-03-07T00:52:14;22.70;;;18.03;;
4389;SDS011;2209;48.982;8.406;2024-03-07T00:54:36;21.03;;;18.67;;
4389;SDS011;2209;48.982;8.406;2024-03-07T00:56:59;23.43;;;19.13;;
4389;SDS011;2209;48.982;8.406;2024-03-07T00:59:21;25.40;;;19.50;;
4389;SDS011;2209;48.982;8.406;2024-03-07T01:01:45;22.90;;;19.17;;
4389;SDS011;2209;48.982;8.406;2024-03-07T01:04:07;22.87;;;19.47;;
4389;SDS011;2209;48.982;8.406;2024-03-07T01:06:29;25.90;;;20.07;;
4389;SDS011;2209;48.982;8.406;2024-03-07T01:08:51;26.70;;;20.63;;
4389;SDS011;2209;48.982;8.406;2024-03-07T01:11:13;28.27;;;22.40;;
4389;SDS011;2209;48.982;8.406;2024-03-07T01:13:35;28.30;;;21.87;;
4389;SDS011;2209;48.982;8.406;2024-03-07T01:15:57;33.70;;;22.83;;
4389;SDS011;2209;48.982;8.406;2024-03-07T01:18:21;30.47;;;22.90;;
4389;SDS011;2209;48.982;8.406;2024-03-07T01:20:43;29.50;;;23.63;;
4389;SDS011;2209;48.982;8.406;2024-03-07T01:23:06;28.97;;;22.27;;
4389;SDS011;2209;48.982;8.406;2024-03-07T01:25:29;30.20;;;24.00;;
4389;SDS011;2209;48.982;8.406;2024-03-07T01:27:54;33.37;;;24.40;;
4389;SDS011;2209;48.982;8.406;2024-03-07T01:30:16;28.13;;;22.97;;
4389;SDS011;2209;48.982;8.406;2024-03-07T01:32:37;29.70;;;23.80;;
4389;SDS011;2209;48.982;8.406;2024-03-07T01:35:00;34.13;;;26.03;;
4389;SDS011;2209;48.982;8.406;2024-03-07T01:37:22;34.13;;;23.90;;
4389;SDS011;2209;48.982;8.406;2024-03-07T01:39:45;30.03;;;23.77;;
4389;SDS011;2209;48.982;8.406;2024-03-07T01:42:07;30.80;;;23.53;;
4389;SDS011;2209;48.982;8.406;2024-03-07T01:44:29;32.40;;;24.17;;
4389;SDS011;2209;48.982;8.406;2024-03-07T01:46:52;32.57;;;24.60;;
4389;SDS011;2209;48.982;8.406;2024-03-07T01:49:15;35.13;;;25.40;;
4389;SDS011;2209;48.982;8.406;2024-03-07T01:51:38;33.70;;;24.50;;
4389;SDS011;2209;48.982;8.406;2024-03-07T01:54:00;35.23;;;25.80;;
4389;SDS011;2209;48.982;8.406;2024-03-07T01:56:24;31.73;;;24.50;;
4389;SDS011;2209;48.982;8.406;2024-03-07T01:58:46;34.27;;;25.40;;
4389;SDS011;2209;48.982;8.406;2024-03-07T02:01:09;34.13;;;25.20;;
4389;SDS011;2209;48.982;8.406;2024-03-07T02:03:32;31.30;;;24.60;;
4389;SDS011;2209;48.982;8.406;2024-03-07T02:05:56;32.73;;;25.23;;
4389;SDS011;2209;48.982;8.406;2024-03-07T02:08:21;37.50;;;25.37;;
4389;SDS011;2209;48.982;8.406;2024-03-07T02:10:43;35.93;;;26.30;;
4389;SDS011;2209;48.982;8.406;2024-03-07T02:13:05;35.10;;;26.70;;
4389;SDS011;2209;48.982;8.406;2024-03-07T02:15:27;35.33;;;26.40;;
4389;SDS011;2209;48.982;8.406;2024-03-07T02:17:49;37.67;;;26.47;;
4389;SDS011;2209;48.982;8.406;2024-03-07T02:20:11;34.43;;;25.80;;
4389;SDS011;2209;48.982;8.406;2024-03-07T02:22:35;34.63;;;25.30;;
4389;SDS011;2209;48.982;8.406;2024-03-07T02:24:57;33.50;;;25.20;;
4389;SDS011;2209;48.982;8.406;2024-03-07T02:27:19;34.17;;;26.30;;
4389;SDS011;2209;48.982;8.406;2024-03-07T02:29:41;34.80;;;26.80;;
4389;SDS011;2209;48.982;8.406;2024-03-07T02:32:03;33.60;;;24.87;;
4389;SDS011;2209;48.982;8.406;2024-03-07T02:34:25;36.27;;;27.00;;
4389;SDS011;2209;48.982;8.406;2024-03-07T02:36:47;34.50;;;25.43;;
4389;SDS011;2209;48.982;8.406;2024-03-07T02:39:13;34.87;;;25.60;;
4389;SDS011;2209;48.982;8.406;2024-03-07T02:41:35;34.63;;;28.63;;
4389;SDS011;2209;48.982;8.406;2024-03-07T02:43:57;36.27;;;26.60;;
4389;SDS011;2209;48.982;8.406;2024-03-07T02:46:21;35.60;;;25.00;;
4389;SDS011;2209;48.982;8.406;2024-03-07T02:48:43;40.93;;;27.00;;
4389;SDS011;2209;48.982;8.406;2024-03-07T02:51:05;35.90;;;26.53;;
4389;SDS011;2209;48.982;8.406;2024-03-07T02:53:27;31.70;;;24.80;;
4389;SDS011;2209;48.982;8.406;2024-03-07T02:55:51;37.40;;;28.47;;
4389;SDS011;2209;48.982;8.406;2024-03-07T02:58:13;37.50;;;27.57;;
4389;SDS011;2209;48.982;8.406;2024-03-07T03:00:36;36.30;;;27.53;;
4389;SDS011;2209;48.982;8.406;2024-03-07T03:02:58;35.57;;;25.33;;
4389;SDS011;2209;48.982;8.406;2024-03-07T03:05:21;39.93;;;25.60;;
4389;SDS011;2209;48.982;8.406;2024-03-07T03:07:43;39.00;;;27.23;;
4389;SDS011;2209;48.982;8.406;2024-03-07T03:10:13;33.83;;;25.30;;
4389;SDS011;2209;48.982;8.406;2024-03-07T03:12:38;33.47;;;25.13;;
4389;SDS011;2209;48.982;8.406;2024-03-07T03:15:00;29.83;;;23.90;;
4389;SDS011;2209;48.982;8.406;2024-03-07T03:17:22;33.43;;;24.83;;
4389;SDS011;2209;48.982;8.406;2024-03-07T03:19:44;30.67;;;24.60;;
4389;SDS011;2209;48.982;8.406;2024-03-07T03:22:10;33.07;;;25.23;;
4389;SDS011;2209;48.982;8.406;2024-03-07T03:24:32;35.80;;;25.30;;
4389;SDS011;2209;48.982;8.406;2024-03-07T03:26:54;37.83;;;27.37;;
4389;SDS011;2209;48.982;8.406;2024-03-07T03:29:17;40.20;;;27.70;;
4389;SDS011;2209;48.982;8.406;2024-03-07T03:31:39;34.90;;;26.17;;
4389;SDS011;2209;48.982;8.406;2024-03-07T03:34:02;32.30;;;26.60;;
4389;SDS011;2209;48.982;8.406;2024-03-07T03:36:24;35.63;;;26.47;;
4389;SDS011;2209;48.982;8.406;2024-03-07T03:38:46;34.87;;;24.90;;
4389;SDS011;2209;48.982;8.406;2024-03-07T03:41:08;34.13;;;25.60;;
4389;SDS011;2209;48.982;8.406;2024-03-07T03:43:30;38.50;;;27.00;;
4389;SDS011;2209;48.982;8.406;2024-03-07T03:45:54;33.37;;;25.80;;
4389;SDS011;2209;48.982;8.406;2024-03-07T03:48:16;36.13;;;26.30;;
4389;SDS011;2209;48.982;8.406;2024-03-07T03:50:39;34.73;;;26.33;;
4389;SDS011;2209;48.982;8.406;2024-03-07T03:53:01;36.13;;;25.97;;
4389;SDS011;2209;48.982;8.406;2024-03-07T03:55:24;31.37;;;25.03;;
4389;SDS011;2209;48.982;8.406;2024-03-07T03:57:46;35.83;;;27.83;;
4389;SDS011;2209;48.982;8.406;2024-03-07T04:00:09;34.17;;;23.80;;
4389;SDS011;2209;48.982;8.406;2024-03-07T04:02:35;35.77;;;26.13;;
4389;SDS011;2209;48.982;8.406;2024-03-07T04:04:57;30.83;;;23.37;;
4389;SDS011;2209;48.982;8.406;2024-03-07T04:07:20;38.53;;;27.30;;
4389;SDS011;2209;48.982;8.406;2024-03-07T04:09:42;33.23;;;26.43;;
4389;SDS011;2209;48.982;8.406;2024-03-07T04:12:04;40.77;;;26.37;;
4389;SDS011;2209;48.982;8.406;2024-03-07T04:14:30;35.17;;;27.10;;
4389;SDS011;2209;48.982;8.406;2024-03-07T04:16:53;36.73;;;27.10;;
4389;SDS011;2209;48.982;8.406;2024-03-07T04:19:18;33.60;;;24.57;;
4389;SDS011;2209;48.982;8.406;2024-03-07T04:21:40;30.10;;;23.87;;
4389;SDS011;2209;48.982;8.406;2024-03-07T04:24:03;33.20;;;25.30;;
4389;SDS011;2209;48.982;8.406;2024-03-07T04:26:25;37.63;;;26.80;;
4389;SDS011;2209;48.982;8.406;2024-03-07T04:28:47;36.43;;;27.37;;
4389;SDS011;2209;48.982;8.406;2024-03-07T04:31:10;35.97;;;24.90;;
4389;SDS011;2209;48.982;8.406;2024-03-07T04:33:34;36.53;;;26.30;;
4389;SDS011;2209;48.982;8.406;2024-03-07T04:35:57;36.93;;;25.47;;
4389;SDS011;2209;48.982;8.406;2024-03-07T04:38:21;37.57;;;25.57;;
4389;SDS011;2209;48.982;8.406;2024-03-07T04:40:43;37.43;;;27.37;;
4389;SDS011;2209;48.982;8.406;2024-03-07T04:43:05;35.40;;;25.40;;
4389;SDS011;2209;48.982;8.406;2024-03-07T04:45:28;32.10;;;25.40;;
4389;SDS011;2209;48.982;8.406;2024-03-07T04:47:49;32.67;;;25.87;;
4389;SDS011;2209;48.982;8.406;2024-03-07T04:50:11;33.90;;;25.30;;
4389;SDS011;2209;48.982;8.406;2024-03-07T04:52:35;35.93;;;26.83;;
4389;SDS011;2209;48.982;8.406;2024-03-07T04:54:57;32.10;;;23.70;;
4389;SDS011;2209;48.982;8.406;2024-03-07T04:57:19;30.23;;;24.97;;
4389;SDS011;2209;48.982;8.406;2024-03-07T04:59:41;37.27;;;25.43;;
4389;SDS011;2209;48.982;8.406;2024-03-07T05:02:03;34.67;;;27.43;;
4389;SDS011;2209;48.982;8.406;2024-03-07T05:04:25;37.83;;;26.13;;
4389;SDS011;2209;48.982;8.406;2024-03-07T05:06:49;38.10;;;26.77;;
4389;SDS011;2209;48.982;8.406;2024-03-07T05:09:13;36.20;;;26.40;;
4389;SDS011;2209;48.982;8.406;2024-03-07T05:11:43;36.83;;;27.33;;
4389;SDS011;2209;48.982;8.406;2024-03-07T05:14:05;37.70;;;28.10;;
4389;SDS011;2209;48.982;8.406;2024-03-07T05:16:27;36.23;;;25.63;;
4389;SDS011;2209;48.982;8.406;2024-03-07T05:18:50;37.30;;;25.10;;
4389;SDS011;2209;48.982;8.406;2024-03-07T05:21:12;31.57;;;25.23;;
4389;SDS011;2209;48.982;8.406;2024-03-07T05:23:52;38.23;;;26.80;;
4389;SDS011;2209;48.982;8.406;2024-03-07T05:26:15;35.70;;;27.30;;
4389;SDS011;2209;48.982;8.406;2024-03-07T05:28:37;34.70;;;26.03;;
4389;SDS011;2209;48.982;8.406;2024-03-07T05:30:59;34.57;;;25.40;;
4389;SDS011;2209;48.982;8.406;2024-03-07T05:33:22;36.43;;;27.27;;
4389;SDS011;2209;48.982;8.406;2024-03-07T05:35:45;35.30;;;25.10;;
4389;SDS011;2209;48.982;8.406;2024-03-07T05:38:07;37.90;;;26.07;;
4389;SDS011;2209;48.982;8.406;2024-03-07T05:40:29;33.63;;;25.40;;
4389;SDS011;2209;48.982;8.406;2024-03-07T05:42:55;32.70;;;25.53;;
4389;SDS011;2209;48.982;8.406;2024-03-07T05:45:17;35.10;;;24.63;;
4389;SDS011;2209;48.982;8.406;2024-03-07T05:47:39;34.17;;;24.90;;
4389;SDS011;2209;48.982;8.406;2024-03-07T05:50:01;37.33;;;27.30;;
4389;SDS011;2209;48.982;8.406;2024-03-07T05:52:24;36.87;;;25.40;;
4389;SDS011;2209;48.982;8.406;2024-03-07T05:54:46;34.30;;;25.73;;
4389;SDS011;2209;48.982;8.406;2024-03-07T05:57:08;35.40;;;25.33;;
4389;SDS011;2209;48.982;8.406;2024-03-07T05:59:32;33.10;;;25.00;;
4389;SDS011;2209;48.982;8.406;2024-03-07T06:01:54;35.47;;;26.17;;
4389;SDS011;2209;48.982;8.406;2024-03-07T06:04:16;36.97;;;25.10;;
4389;SDS011;2209;48.982;8.406;2024-03-07T06:06:40;35.60;;;25.67;;
4389;SDS011;2209;48.982;8.406;2024-03-07T06:09:02;33.97;;;26.03;;
4389;SDS011;2209;48.982;8.406;2024-03-07T06:11:27;36.43;;;25.77;;
4389;SDS011;2209;48.982;8.406;2024-03-07T06:13:50;36.40;;;27.70;;
4389;SDS011;2209;48.982;8.406;2024-03-07T06:16:13;39.00;;;28.10;;
4389;SDS011;2209;48.982;8.406;2024-03-07T06:18:36;36.60;;;27.20;;
4389;SDS011;2209;48.982;8.406;2024-03-07T06:20:58;34.93;;;26.20;;
4389;SDS011;2209;48.982;8.406;2024-03-07T06:23:20;37.17;;;27.93;;
4389;SDS011;2209;48.982;8.406;2024-03-07T06:25:42;36.80;;;26.40;;
4389;SDS011;2209;48.982;8.406;2024-03-07T06:28:10;37.47;;;27.33;;
4389;SDS011;2209;48.982;8.406;2024-03-07T06:30:33;36.27;;;26.17;;
4389;SDS011;2209;48.982;8.406;2024-03-07T06:32:57;34.80;;;25.67;;
4389;SDS011;2209;48.982;8.406;2024-03-07T06:35:19;40.40;;;27.23;;
4389;SDS011;2209;48.982;8.406;2024-03-07T06:37:42;40.87;;;28.33;;
4389;SDS011;2209;48.982;8.406;2024-03-07T06:40:04;39.40;;;28.40;;
4389;SDS011;2209;48.982;8.406;2024-03-07T06:42:30;37.13;;;26.87;;
4389;SDS011;2209;48.982;8.406;2024-03-07T06:44:53;36.57;;;28.30;;
4389;SDS011;2209;48.982;8.406;2024-03-07T06:47:15;36.37;;;26.80;;
4389;SDS011;2209;48.982;8.406;2024-03-07T06:49:38;36.30;;;27.50;;
4389;SDS011;2209;48.982;8.406;2024-03-07T06:52:00;40.07;;;26.70;;
4389;SDS011;2209;48.982;8.406;2024-03-07T06:54:22;35.90;;;27.40;;
4389;SDS011;2209;48.982;8.406;2024-03-07T06:56:44;36.50;;;28.63;;
4389;SDS011;2209;48.982;8.406;2024-03-07T06:59:06;36.73;;;27.63;;
4389;SDS011;2209;48.982;8.406;2024-03-07T07:01:29;42.43;;;29.60;;
4389;SDS011;2209;48.982;8.406;2024-03-07T07:03:51;35.50;;;27.10;;
4389;SDS011;2209;48.982;8.406;2024-03-07T07:06:16;43.10;;;28.93;;
4389;SDS011;2209;48.982;8.406;2024-03-07T07:08:39;37.23;;;26.60;;
4389;SDS011;2209;48.982;8.406;2024-03-07T07:11:01;39.70;;;27.63;;
4389;SDS011;2209;48.982;8.406;2024-03-07T07:13:24;39.00;;;28.47;;
4389;SDS011;2209;48.982;8.406;2024-03-07T07:15:46;38.73;;;27.27;;
4389;SDS011;2209;48.982;8.406;2024-03-07T07:18:08;35.43;;;27.30;;
4389;SDS011;2209;48.982;8.406;2024-03-07T07:20:30;38.73;;;28.27;;
4389;SDS011;2209;48.982;8.406;2024-03-07T07:22:56;40.73;;;28.60;;
4389;SDS011;2209;48.982;8.406;2024-03-07T07:25:21;39.60;;;28.17;;
4389;SDS011;2209;48.982;8.406;2024-03-07T07:27:43;39.13;;;27.70;;
4389;SDS011;2209;48.982;8.406;2024-03-07T07:30:07;37.60;;;26.20;;
4389;SDS011;2209;48.982;8.406;2024-03-07T07:32:30;35.60;;;27.50;;
4389;SDS011;2209;48.982;8.406;2024-03-07T07:34:53;36.60;;;27.87;;
4389;SDS011;2209;48.982;8.406;2024-03-07T07:37:15;36.83;;;26.83;;
4389;SDS011;2209;48.982;8.406;2024-03-07T07:39:39;35.20;;;25.80;;
4389;SDS011;2209;48.982;8.406;2024-03-07T07:42:01;38.70;;;26.07;;
4389;SDS011;2209;48.982;8.406;2024-03-07T07:44:23;34.33;;;25.07;;
4389;SDS011;2209;48.982;8.406;2024-03-07T07:46:45;31.60;;;25.07;;
4389;SDS011;2209;48.982;8.406;2024-03-07T07:49:07;36.93;;;26.50;;
4389;SDS011;2209;48.982;8.406;2024-03-07T07:51:29;31.90;;;24.60;;
4389;SDS011;2209;48.982;8.406;2024-03-07T07:53:51;33.43;;;25.27;;
4389;SDS011;2209;48.982;8.406;2024-03-07T07:56:16;33.37;;;24.00;;
4389;SDS011;2209;48.982;8.406;2024-03-07T07:58:38;28.60;;;22.70;;
4389;SDS011;2209;48.982;8.406;2024-03-07T08:01:00;34.50;;;22.63;;
4389;SDS011;2209;48.982;8.406;2024-03-07T08:03:23;32.60;;;23.27;;
4389;SDS011;2209;48.982;8.406;2024-03-07T08:05:45;31.87;;;23.00;;
4389;SDS011;2209;48.982;8.406;2024-03-07T08:08:08;30.20;;;22.80;;
4389;SDS011;2209;48.982;8.406;2024-03-07T08:10:34;30.87;;;24.03;;
4389;SDS011;2209;48.982;8.406;2024-03-07T08:12:59;27.47;;;22.00;;
4389;SDS011;2209;48.982;8.406;2024-03-07T08:15:23;24.33;;;19.83;;
4389;SDS011;2209;48.982;8.406;2024-03-07T08:17:47;31.83;;;22.87;;
4389;SDS011;2209;48.982;8.406;2024-03-07T08:20:11;28.23;;;21.87;;
4389;SDS011;2209;48.982;8.406;2024-03-07T08:22:33;28.67;;;22.37;;
4389;SDS011;2209;48.982;8.406;2024-03-07T08:24:55;27.07;;;20.03;;
4389;SDS011;2209;48.982;8.406;2024-03-07T08:27:17;25.93;;;20.57;;
4389;SDS011;2209;48.982;8.406;2024-03-07T08:29:41;25.40;;;20.70;;
4389;SDS011;2209;48.982;8.406;2024-03-07T08:32:03;28.27;;;21.20;;
4389;SDS011;2209;48.982;8.406;2024-03-07T08:34:26;25.20;;;20.87;;
4389;SDS011;2209;48.982;8.406;2024-03-07T08:36:48;25.23;;;19.43;;
4389;SDS011;2209;48.982;8.406;2024-03-07T08:39:10;25.73;;;21.17;;
4389;SDS011;2209;48.982;8.406;2024-03-07T08:41:34;25.63;;;18.93;;
4389;SDS011;2209;48.982;8.406;2024-03-07T08:44:01;27.37;;;21.13;;
4389;SDS011;2209;48.982;8.406;2024-03-07T08:46:24;26.40;;;20.50;;
4389;SDS011;2209;48.982;8.406;2024-03-07T08:48:48;26.17;;;20.17;;
4389;SDS011;2209;48.982;8.406;2024-03-07T08:51:10;25.20;;;18.77;;
4389;SDS011;2209;48.982;8.406;2024-03-07T08:53:32;27.33;;;19.27;;
4389;SDS011;2209;48.982;8.406;2024-03-07T08:55:56;26.90;;;19.00;;
4389;SDS011;2209;48.982;8.406;2024-03-07T08:58:19;21.97;;;18.03;;
4389;SDS011;2209;48.982;8.406;2024-03-07T09:00:41;25.40;;;18.30;;
4389;SDS011;2209;48.982;8.406;2024-03-07T09:03:06;24.20;;;18.90;;
4389;SDS011;2209;48.982;8.406;2024-03-07T09:05:31;26.10;;;20.40;;
4389;SDS011;2209;48.982;8.406;2024-03-07T09:07:54;28.83;;;20.70;;
4389;SDS011;2209;48.982;8.406;2024-03-07T09:10:16;26.03;;;19.97;;
4389;SDS011;2209;48.982;8.406;2024-03-07T09:12:39;23.83;;;19.27;;
4389;SDS011;2209;48.982;8.406;2024-03-07T09:15:01;26.03;;;19.43;;
4389;SDS011;2209;48.982;8.406;2024-03-07T09:17:23;26.80;;;19.60;;
4389;SDS011;2209;48.982;8.406;2024-03-07T09:19:47;24.53;;;19.73;;
4389;SDS011;2209;48.982;8.406;2024-03-07T09:22:09;24.83;;;19.07;;
4389;SDS011;2209;48.982;8.406;2024-03-07T09:24:31;31.07;;;23.77;;
4389;SDS011;2209;48.982;8.406;2024-03-07T09:26:53;26.00;;;21.27;;
4389;SDS011;2209;48.982;8.406;2024-03-07T09:29:17;24.80;;;19.00;;
4389;SDS011;2209;48.982;8.406;2024-03-07T09:31:39;27.10;;;19.63;;
4389;SDS011;2209;48.982;8.406;2024-03-07T09:34:02;25.40;;;19.63;;
4389;SDS011;2209;48.982;8.406;2024-03-07T09:36:25;23.63;;;19.60;;
4389;SDS011;2209;48.982;8.406;2024-03-07T09:38:47;26.40;;;19.93;;
4389;SDS011;2209;48.982;8.406;2024-03-07T09:41:09;24.30;;;20.40;;
4389;SDS011;2209;48.982;8.406;2024-03-07T09:43:32;29.17;;;21.13;;
4389;SDS011;2209;48.982;8.406;2024-03-07T09:45:56;28.83;;;20.67;;
4389;SDS011;2209;48.982;8.406;2024-03-07T09:48:19;25.53;;;19.53;;
4389;SDS011;2209;48.982;8.406;2024-03-07T09:50:45;26.73;;;19.97;;
4389;SDS011;2209;48.982;8.406;2024-03-07T09:53:13;35.77;;;22.10;;
4389;SDS011;2209;48.982;8.406;2024-03-07T09:55:37;33.83;;;23.20;;
4389;SDS011;2209;48.982;8.406;2024-03-07T09:58:00;28.97;;;20.17;;
4389;SDS011;2209;48.982;8.406;2024-03-07T10:00:24;28.30;;;22.00;;
4389;SDS011;2209;48.982;8.406;2024-03-07T10:02:47;28.10;;;21.83;;
4389;SDS011;2209;48.982;8.406;2024-03-07T10:05:09;26.40;;;21.83;;
4389;SDS011;2209;48.982;8.406;2024-03-07T10:07:36;31.03;;;21.80;;
4389;SDS011;2209;48.982;8.406;2024-03-07T10:10:00;27.80;;;21.23;;
4389;SDS011;2209;48.982;8.406;2024-03-07T10:12:30;32.47;;;24.03;;
4389;SDS011;2209;48.982;8.406;2024-03-07T10:14:55;30.83;;;22.57;;
4389;SDS011;2209;48.982;8.406;2024-03-07T10:17:18;29.13;;;20.37;;
4389;SDS011;2209;48.982;8.406;2024-03-07T10:19:40;31.23;;;22.50;;
4389;SDS011;2209;48.982;8.406;2024-03-07T10:22:02;24.87;;;20.80;;
4389;SDS011;2209;48.982;8.406;2024-03-07T10:24:27;26.87;;;19.77;;
4389;SDS011;2209;48.982;8.406;2024-03-07T10:26:50;29.47;;;21.03;;
4389;SDS011;2209;48.982;8.406;2024-03-07T10:29:13;33.53;;;23.70;;
4389;SDS011;2209;48.982;8.406;2024-03-07T10:31:35;29.03;;;21.40;;
4389;SDS011;2209;48.982;8.406;2024-03-07T10:33:59;29.20;;;22.50;;
4389;SDS011;2209;48.982;8.406;2024-03-07T10:36:22;32.17;;;21.80;;
4389;SDS011;2209;48.982;8.406;2024-03-07T10:38:44;28.90;;;21.87;;
4389;SDS011;2209;48.982;8.406;2024-03-07T10:41:06;28.27;;;22.70;;
4389;SDS011;2209;48.982;8.406;2024-03-07T10:43:30;27.80;;;21.40;;
4389;SDS011;2209;48.982;8.406;2024-03-07T10:46:01;26.13;;;20.00;;
4389;SDS011;2209;48.982;8.406;2024-03-07T10:48:29;28.43;;;21.57;;
4389;SDS011;2209;48.982;8.406;2024-03-07T10:50:54;29.10;;;21.97;;
4389;SDS011;2209;48.982;8.406;2024-03-07T10:53:29;28.70;;;20.57;;
4389;SDS011;2209;48.982;8.406;2024-03-07T10:55:59;27.77;;;21.83;;
4389;SDS011;2209;48.982;8.406;2024-03-07T10:58:37;35.63;;;22.77;;
4389;SDS011;2209;48.982;8.406;2024-03-07T11:01:08;28.83;;;21.73;;
4389;SDS011;2209;48.982;8.406;2024-03-07T11:03:32;30.20;;;23.40;;
4389;SDS011;2209;48.982;8.406;2024-03-07T11:05:56;35.93;;;25.20;;
4389;SDS011;2209;48.982;8.406;2024-03-07T11:08:19;33.23;;;24.13;;
4389;SDS011;2209;48.982;8.406;2024-03-07T11:10:41;35.33;;;24.97;;
4389;SDS011;2209;48.982;8.406;2024-03-07T11:13:08;33.73;;;25.90;;
4389;SDS011;2209;48.982;8.406;2024-03-07T11:15:35;31.80;;;24.27;;
4389;SDS011;2209;48.982;8.406;2024-03-07T11:17:58;33.13;;;24.87;;
4389;SDS011;2209;48.982;8.406;2024-03-07T11:20:21;31.60;;;22.60;;
4389;SDS011;2209;48.982;8.406;2024-03-07T11:22:43;38.23;;;25.03;;
4389;SDS011;2209;48.982;8.406;2024-03-07T11:25:06;34.10;;;24.23;;
4389;SDS011;2209;48.982;8.406;2024-03-07T11:27:28;31.80;;;24.00;;
4389;SDS011;2209;48.982;8.406;2024-03-07T11:29:51;33.67;;;24.67;;
4389;SDS011;2209;48.982;8.406;2024-03-07T11:32:15;30.63;;;23.80;;
4389;SDS011;2209;48.982;8.406;2024-03-07T11:34:37;31.70;;;24.40;;
4389;SDS011;2209;48.982;8.406;2024-03-07T11:37:01;34.30;;;25.20;;
4389;SDS011;2209;48.982;8.406;2024-03-07T11:39:40;34.23;;;24.60;;
4389;SDS011;2209;48.982;8.406;2024-03-07T11:42:02;36.10;;;24.07;;
4389;SDS011;2209;48.982;8.406;2024-03-07T11:44:26;33.83;;;23.57;;
4389;SDS011;2209;48.982;8.406;2024-03-07T11:46:48;31.07;;;23.97;;
4389;SDS011;2209;48.982;8.406;2024-03-07T11:49:12;31.70;;;22.43;;
4389;SDS011;2209;48.982;8.406;2024-03-07T11:51:36;33.33;;;24.27;;
4389;SDS011;2209;48.982;8.406;2024-03-07T11:53:58;30.80;;;23.80;;
4389;SDS011;2209;48.982;8.406;2024-03-07T11:56:20;29.87;;;23.00;;
4389;SDS011;2209;48.982;8.406;2024-03-07T11:58:43;32.20;;;24.67;;
4389;SDS011;2209;48.982;8.406;2024-03-07T12:01:05;35.47;;;24.67;;
4389;SDS011;2209;48.982;8.406;2024-03-07T12:03:31;33.90;;;23.97;;
4389;SDS011;2209;48.982;8.406;2024-03-07T12:05:56;32.93;;;23.40;;
4389;SDS011;2209;48.982;8.406;2024-03-07T12:08:18;31.10;;;23.03;;
4389;SDS011;2209;48.982;8.406;2024-03-07T12:10:43;31.77;;;22.83;;
4389;SDS011;2209;48.982;8.406;2024-03-07T12:13:06;33.27;;;23.97;;
4389;SDS011;2209;48.982;8.406;2024-03-07T12:15:28;36.43;;;24.53;;
4389;SDS011;2209;48.982;8.406;2024-03-07T12:17:52;33.20;;;23.50;;
4389;SDS011;2209;48.982;8.406;2024-03-07T12:20:15;33.10;;;24.50;;
4389;SDS011;2209;48.982;8.406;2024-03-07T12:22:49;32.67;;;24.27;;
4389;SDS011;2209;48.982;8.406;2024-03-07T12:25:17;34.33;;;24.63;;
4389;SDS011;2209;48.982;8.406;2024-03-07T12:27:42;35.37;;;22.00;;
4389;SDS011;2209;48.982;8.406;2024-03-07T12:30:14;30.17;;;21.63;;
4389;SDS011;2209;48.982;8.406;2024-03-07T12:32:36;28.17;;;20.83;;
4389;SDS011;2209;48.982;8.406;2024-03-07T12:34:58;34.20;;;22.60;;
4389;SDS011;2209;48.982;8.406;2024-03-07T12:37:21;29.23;;;21.53;;
4389;SDS011;2209;48.982;8.406;2024-03-07T12:39:48;31.13;;;22.23;;
4389;SDS011;2209;48.982;8.406;2024-03-07T12:42:21;32.93;;;23.40;;
4389;SDS011;2209;48.982;8.406;2024-03-07T12:44:43;30.80;;;23.70;;
4389;SDS011;2209;48.982;8.406;2024-03-07T12:47:07;28.63;;;21.43;;
4389;SDS011;2209;48.982;8.406;2024-03-07T12:49:31;32.63;;;23.83;;
4389;SDS011;2209;48.982;8.406;2024-03-07T12:51:53;29.50;;;21.23;;
4389;SDS011;2209;48.982;8.406;2024-03-07T12:54:15;32.13;;;21.27;;
4389;SDS011;2209;48.982;8.406;2024-03-07T12:56:39;28.93;;;21.53;;
4389;SDS011;2209;48.982;8.406;2024-03-07T12:59:01;33.33;;;22.53;;
4389;SDS011;2209;48.982;8.406;2024-03-07T13:01:23;27.30;;;21.07;;
4389;SDS011;2209;48.982;8.406;2024-03-07T13:03:46;27.97;;;21.20;;
4389;SDS011;2209;48.982;8.406;2024-03-07T13:06:09;25.97;;;20.70;;
4389;SDS011;2209;48.982;8.406;2024-03-07T13:08:31;29.10;;;22.27;;
4389;SDS011;2209;48.982;8.406;2024-03-07T13:10:54;31.53;;;20.60;;
4389;SDS011;2209;48.982;8.406;2024-03-07T13:13:17;31.60;;;22.17;;
4389;SDS011;2209;48.982;8.406;2024-03-07T13:15:41;28.13;;;21.23;;
4389;SDS011;2209;48.982;8.406;2024-03-07T13:18:07;32.80;;;22.97;;
4389;SDS011;2209;48.982;8.406;2024-03-07T13:20:30;32.10;;;23.00;;
4389;SDS011;2209;48.982;8.406;2024-03-07T13:22:52;34.37;;;21.93;;
4389;SDS011;2209;48.982;8.406;2024-03-07T13:25:15;32.80;;;21.83;;
4389;SDS011;2209;48.982;8.406;2024-03-07T13:27:41;32.03;;;22.03;;
4389;SDS011;2209;48.982;8.406;2024-03-07T13:30:07;31.70;;;22.50;;
4389;SDS011;2209;48.982;8.406;2024-03-07T13:32:31;30.43;;;21.83;;
4389;SDS011;2209;48.982;8.406;2024-03-07T13:34:53;24.77;;;19.60;;
4389;SDS011;2209;48.982;8.406;2024-03-07T13:37:15;26.07;;;20.67;;
4389;SDS011;2209;48.982;8.406;2024-03-07T13:39:38;32.13;;;22.43;;
4389;SDS011;2209;48.982;8.406;2024-03-07T13:42:00;25.93;;;20.03;;
4389;SDS011;2209;48.982;8.406;2024-03-07T13:44:23;25.80;;;19.73;;
4389;SDS011;2209;48.982;8.406;2024-03-07T13:46:49;30.30;;;22.30;;
4389;SDS011;2209;48.982;8.406;2024-03-07T13:49:13;26.73;;;20.20;;
4389;SDS011;2209;48.982;8.406;2024-03-07T13:51:36;32.23;;;20.90;;
4389;SDS011;2209;48.982;8.406;2024-03-07T13:54:01;29.30;;;20.47;;
4389;SDS011;2209;48.982;8.406;2024-03-07T13:56:49;25.53;;;19.33;;
4389;SDS011;2209;48.982;8.406;2024-03-07T13:59:31;29.13;;;20.37;;
4389;SDS011;2209;48.982;8.406;2024-03-07T14:02:33;27.37;;;19.57;;
4389;SDS011;2209;48.982;8.406;2024-03-07T14:05:20;26.87;;;18.30;;
4389;SDS011;2209;48.982;8.406;2024-03-07T14:11:21;27.83;;;19.40;;
4389;SDS011;2209;48.982;8.406;2024-03-07T14:14:15;28.93;;;20.90;;
4389;SDS011;2209;48.982;8.406;2024-03-07T14:17:13;28.60;;;20.37;;
4389;SDS011;2209;48.982;8.406;2024-03-07T14:20:05;30.60;;;21.00;;
4389;SDS011;2209;48.982;8.406;2024-03-07T14:23:00;25.50;;;19.47;;
4389;SDS011;2209;48.982;8.406;2024-03-07T14:25:43;31.80;;;21.60;;
4389;SDS011;2209;48.982;8.406;2024-03-07T14:28:15;25.67;;;20.13;;
4389;SDS011;2209;48.982;8.406;2024-03-07T14:30:51;32.53;;;22.70;;
4389;SDS011;2209;48.982;8.406;2024-03-07T14:33:16;28.67;;;21.23;;